sensor_id;sensor_type;location;lat;lon;timestamp;pressure;altitude;pressure_sealevel;temperature;humidity
40460;BME280;26164;51.138;16.952;2024-01-11T00:01:28;78136.38;;;-146.39;30.96
40460;BME280;26164;51.138;16.952;2024-01-11T00:03:57;78218.06;;;-146.39;31.79
40460;BME280;26164;51.138;16.952;2024-01-11T00:06:26;78152.72;;;-146.39;30.63
40460;BME280;26164;51.138;16.952;2024-01-11T00:08:52;78205.81;;;-146.39;31.42
40460;BME280;26164;51.138;16.952;2024-01-11T00:11:20;78254.84;;;-146.39;31.91
40460;BME280;26164;51.138;16.952;2024-01-11T00:13:46;78189.47;;;-146.39;30.83
40460;BME280;26164;51.138;16.952;2024-01-11T00:16:15;78091.44;;;-146.39;30.73
40460;BME280;26164;51.138;16.952;2024-01-11T00:18:42;78171.09;;;-146.39;30.66
40460;BME280;26164;51.138;16.952;2024-01-11T00:21:09;78140.47;;;-146.39;30.39
40460;BME280;26164;51.138;16.952;2024-01-11T00:23:35;78185.41;;;-146.39;30.74
40460;BME280;26164;51.138;16.952;2024-01-11T00:26:16;78414.13;;;-146.39;32.45
40460;BME280;26164;51.138;16.952;2024-01-11T00:28:58;78285.47;;;-146.39;31.97
40460;BME280;26164;51.138;16.952;2024-01-11T00:31:39;78228.28;;;-146.39;31.18
40460;BME280;26164;51.138;16.952;2024-01-11T00:34:25;78214.00;;;-146.39;31.23
40460;BME280;26164;51.138;16.952;2024-01-11T00:37:06;78238.50;;;-146.39;31.38
40460;BME280;26164;51.138;16.952;2024-01-11T00:39:33;78256.88;;;-146.39;31.46
40460;BME280;26164;51.138;16.952;2024-01-11T00:42:00;78295.69;;;-146.39;31.47
40460;BME280;26164;51.138;16.952;2024-01-11T00:44:29;78246.66;;;-146.39;31.48
40460;BME280;26164;51.138;16.952;2024-01-11T00:46:55;78248.72;;;-146.39;31.45
40460;BME280;26164;51.138;16.952;2024-01-11T00:49:22;78175.19;;;-146.39;30.80
40460;BME280;26164;51.138;16.952;2024-01-11T00:51:48;78312.03;;;-146.39;31.89
40460;BME280;26164;51.138;16.952;2024-01-11T00:54:16;78256.88;;;-146.39;31.82
40460;BME280;26164;51.138;16.952;2024-01-11T00:56:43;78218.06;;;-146.39;31.89
40460;BME280;26164;51.138;16.952;2024-01-11T00:59:14;78095.53;;;-146.39;30.36
40460;BME280;26164;51.138;16.952;2024-01-11T01:01:40;78169.06;;;-146.39;30.75
40460;BME280;26164;51.138;16.952;2024-01-11T01:04:07;78207.84;;;-146.39;31.13
40460;BME280;26164;51.138;16.952;2024-01-11T01:06:33;78179.28;;;-146.39;30.96
40460;BME280;26164;51.138;16.952;2024-01-11T01:09:00;78152.72;;;-146.39;30.92
40460;BME280;26164;51.138;16.952;2024-01-11T01:11:27;78230.31;;;-146.39;31.30
40460;BME280;26164;51.138;16.952;2024-01-11T01:13:54;78189.47;;;-146.39;31.31
40460;BME280;26164;51.138;16.952;2024-01-11T01:16:20;78201.72;;;-146.39;31.09
40460;BME280;26164;51.138;16.952;2024-01-11T01:19:00;78156.81;;;-146.39;30.92
40460;BME280;26164;51.138;16.952;2024-01-11T01:21:30;78075.09;;;-146.39;30.57
40460;BME280;26164;51.138;16.952;2024-01-11T01:23:56;78013.84;;;-146.39;30.42
40460;BME280;26164;51.138;16.952;2024-01-11T01:26:22;78038.34;;;-146.39;30.05
40460;BME280;26164;51.138;16.952;2024-01-11T01:28:48;78087.38;;;-146.39;30.08
40460;BME280;26164;51.138;16.952;2024-01-11T01:31:15;78113.91;;;-146.39;30.95
40460;BME280;26164;51.138;16.952;2024-01-11T01:33:41;78103.69;;;-146.39;30.53
40460;BME280;26164;51.138;16.952;2024-01-11T01:36:09;78109.84;;;-146.39;30.75
40460;BME280;26164;51.138;16.952;2024-01-11T01:38:35;78164.97;;;-146.39;31.39
40460;BME280;26164;51.138;16.952;2024-01-11T01:41:01;78248.72;;;-146.39;32.11
40460;BME280;26164;51.138;16.952;2024-01-11T01:43:28;78263.00;;;-146.39;32.15
40460;BME280;26164;51.138;16.952;2024-01-11T01:45:54;78267.09;;;-146.39;32.38
40460;BME280;26164;51.138;16.952;2024-01-11T01:48:21;78271.19;;;-146.39;32.50
40460;BME280;26164;51.138;16.952;2024-01-11T01:50:48;78209.91;;;-146.39;32.02
40460;BME280;26164;51.138;16.952;2024-01-11T01:53:21;78064.91;;;-146.39;31.03
40460;BME280;26164;51.138;16.952;2024-01-11T01:55:51;78005.69;;;-146.39;30.36
40460;BME280;26164;51.138;16.952;2024-01-11T01:58:19;78042.44;;;-146.39;30.66
40460;BME280;26164;51.138;16.952;2024-01-11T02:00:48;77977.09;;;-146.39;30.28
40460;BME280;26164;51.138;16.952;2024-01-11T02:03:17;78064.91;;;-146.39;30.50
40460;BME280;26164;51.138;16.952;2024-01-11T02:05:47;78120.03;;;-146.39;31.08
40460;BME280;26164;51.138;16.952;2024-01-11T02:08:15;78095.53;;;-146.39;31.11
40460;BME280;26164;51.138;16.952;2024-01-11T02:10:44;78093.50;;;-146.39;31.15
40460;BME280;26164;51.138;16.952;2024-01-11T02:13:11;78038.34;;;-146.39;30.75
40460;BME280;26164;51.138;16.952;2024-01-11T02:15:50;78022.00;;;-146.39;30.60
40460;BME280;26164;51.138;16.952;2024-01-11T02:18:42;77895.41;;;-146.39;29.94
40460;BME280;26164;51.138;16.952;2024-01-11T02:21:14;78026.09;;;-146.39;30.04
40460;BME280;26164;51.138;16.952;2024-01-11T02:24:04;77964.84;;;-146.39;30.61
40460;BME280;26164;51.138;16.952;2024-01-11T02:27:03;77946.44;;;-146.39;30.30
40460;BME280;26164;51.138;16.952;2024-01-11T02:32:46;77895.41;;;-146.39;30.04
40460;BME280;26164;51.138;16.952;2024-01-11T02:35:18;77911.72;;;-146.39;29.60
40460;BME280;26164;51.138;16.952;2024-01-11T02:37:46;77883.13;;;-146.39;29.36
40460;BME280;26164;51.138;16.952;2024-01-11T02:40:23;77907.66;;;-146.39;29.69
40460;BME280;26164;51.138;16.952;2024-01-11T02:42:50;77856.59;;;-146.39;28.80
40460;BME280;26164;51.138;16.952;2024-01-11T02:45:17;77921.94;;;-146.39;29.67
40460;BME280;26164;51.138;16.952;2024-01-11T02:47:44;78026.09;;;-146.39;30.51
40460;BME280;26164;51.138;16.952;2024-01-11T02:50:11;77993.41;;;-146.39;30.64
40460;BME280;26164;51.138;16.952;2024-01-11T02:52:39;78091.44;;;-146.39;31.07
40460;BME280;26164;51.138;16.952;2024-01-11T02:55:08;77956.66;;;-146.39;31.13
40460;BME280;26164;51.138;16.952;2024-01-11T02:57:40;78042.44;;;-146.39;31.43
40460;BME280;26164;51.138;16.952;2024-01-11T03:00:07;78152.72;;;-146.39;31.77
40460;BME280;26164;51.138;16.952;2024-01-11T03:02:37;78093.50;;;-146.39;31.79
40460;BME280;26164;51.138;16.952;2024-01-11T03:05:04;77995.47;;;-146.39;30.69
40460;BME280;26164;51.138;16.952;2024-01-11T03:07:30;78001.59;;;-146.39;30.64
40460;BME280;26164;51.138;16.952;2024-01-11T03:09:56;77981.16;;;-146.39;30.48
40460;BME280;26164;51.138;16.952;2024-01-11T03:12:22;78062.84;;;-146.39;31.07
40460;BME280;26164;51.138;16.952;2024-01-11T03:14:52;78066.94;;;-146.39;31.21
40460;BME280;26164;51.138;16.952;2024-01-11T03:17:20;77923.97;;;-146.39;30.60
40460;BME280;26164;51.138;16.952;2024-01-11T03:19:46;77997.50;;;-146.39;30.77
40460;BME280;26164;51.138;16.952;2024-01-11T03:22:13;78062.84;;;-146.39;31.43
40460;BME280;26164;51.138;16.952;2024-01-11T03:24:40;78028.13;;;-146.39;30.55
40460;BME280;26164;51.138;16.952;2024-01-11T03:27:06;78009.75;;;-146.39;30.62
40460;BME280;26164;51.138;16.952;2024-01-11T03:29:33;77975.03;;;-146.39;30.50
40460;BME280;26164;51.138;16.952;2024-01-11T03:32:00;78060.81;;;-146.39;30.59
40460;BME280;26164;51.138;16.952;2024-01-11T03:34:27;78107.78;;;-146.39;31.24
40460;BME280;26164;51.138;16.952;2024-01-11T03:36:53;78150.69;;;-146.39;31.48
40460;BME280;26164;51.138;16.952;2024-01-11T03:39:19;78054.69;;;-146.39;30.94
40460;BME280;26164;51.138;16.952;2024-01-11T03:41:45;77944.41;;;-146.39;30.03
40460;BME280;26164;51.138;16.952;2024-01-11T03:44:12;77940.31;;;-146.39;30.34
40460;BME280;26164;51.138;16.952;2024-01-11T03:46:40;77909.69;;;-146.39;30.36
40460;BME280;26164;51.138;16.952;2024-01-11T03:49:10;77940.31;;;-146.39;30.36
40460;BME280;26164;51.138;16.952;2024-01-11T03:51:37;78142.50;;;-146.39;31.55
40460;BME280;26164;51.138;16.952;2024-01-11T03:54:05;78099.63;;;-146.39;31.34
40460;BME280;26164;51.138;16.952;2024-01-11T03:56:42;78009.75;;;-146.39;31.21
40460;BME280;26164;51.138;16.952;2024-01-11T03:59:23;78134.34;;;-146.39;31.60
40460;BME280;26164;51.138;16.952;2024-01-11T04:01:52;77956.66;;;-146.39;30.42
40460;BME280;26164;51.138;16.952;2024-01-11T04:04:18;78005.69;;;-146.39;30.57
40460;BME280;26164;51.138;16.952;2024-01-11T04:06:46;77977.09;;;-146.39;30.51
40460;BME280;26164;51.138;16.952;2024-01-11T04:09:12;78026.09;;;-146.39;30.61
40460;BME280;26164;51.138;16.952;2024-01-11T04:11:53;78054.69;;;-146.39;31.27
40460;BME280;26164;51.138;16.952;2024-01-11T04:14:26;77960.75;;;-146.39;30.56
40460;BME280;26164;51.138;16.952;2024-01-11T04:16:52;77866.81;;;-146.39;29.72
40460;BME280;26164;51.138;16.952;2024-01-11T04:19:19;77919.91;;;-146.39;29.94
40460;BME280;26164;51.138;16.952;2024-01-11T04:21:45;77928.06;;;-146.39;30.10
40460;BME280;26164;51.138;16.952;2024-01-11T04:24:11;78009.75;;;-146.39;30.27
40460;BME280;26164;51.138;16.952;2024-01-11T04:26:37;77968.91;;;-146.39;30.45
40460;BME280;26164;51.138;16.952;2024-01-11T04:29:04;77981.16;;;-146.39;30.43
40460;BME280;26164;51.138;16.952;2024-01-11T04:31:31;77940.31;;;-146.39;30.39
40460;BME280;26164;51.138;16.952;2024-01-11T04:34:02;77960.75;;;-146.39;30.22
40460;BME280;26164;51.138;16.952;2024-01-11T04:36:28;78026.09;;;-146.39;30.44
40460;BME280;26164;51.138;16.952;2024-01-11T04:38:55;77964.84;;;-146.39;30.15
40460;BME280;26164;51.138;16.952;2024-01-11T04:41:21;78054.69;;;-146.39;30.90
40460;BME280;26164;51.138;16.952;2024-01-11T04:43:48;78046.53;;;-146.39;30.87
40460;BME280;26164;51.138;16.952;2024-01-11T04:46:21;77952.56;;;-146.39;30.55
40460;BME280;26164;51.138;16.952;2024-01-11T04:48:48;78054.69;;;-146.39;30.92
40460;BME280;26164;51.138;16.952;2024-01-11T04:51:17;77952.56;;;-146.39;30.89
40460;BME280;26164;51.138;16.952;2024-01-11T04:53:48;78103.69;;;-146.39;31.39
40460;BME280;26164;51.138;16.952;2024-01-11T04:56:15;78042.44;;;-146.39;31.43
40460;BME280;26164;51.138;16.952;2024-01-11T04:58:43;78001.59;;;-146.39;31.31
40460;BME280;26164;51.138;16.952;2024-01-11T05:01:13;77936.25;;;-146.39;30.91
40460;BME280;26164;51.138;16.952;2024-01-11T05:03:41;77944.41;;;-146.39;30.88
40460;BME280;26164;51.138;16.952;2024-01-11T05:06:07;77911.72;;;-146.39;30.45
40460;BME280;26164;51.138;16.952;2024-01-11T05:08:34;77975.03;;;-146.39;30.77
40460;BME280;26164;51.138;16.952;2024-01-11T05:11:04;78017.94;;;-146.39;31.41
40460;BME280;26164;51.138;16.952;2024-01-11T05:13:38;78017.94;;;-146.39;31.21
40460;BME280;26164;51.138;16.952;2024-01-11T05:16:08;78009.75;;;-146.39;31.32
40460;BME280;26164;51.138;16.952;2024-01-11T05:18:57;77923.97;;;-146.39;30.86
40460;BME280;26164;51.138;16.952;2024-01-11T05:21:39;78011.81;;;-146.39;30.80
40460;BME280;26164;51.138;16.952;2024-01-11T05:24:21;77960.75;;;-146.39;30.59
40460;BME280;26164;51.138;16.952;2024-01-11T05:26:58;77905.59;;;-146.39;30.68
40460;BME280;26164;51.138;16.952;2024-01-11T05:29:26;77789.19;;;-146.39;29.81
40460;BME280;26164;51.138;16.952;2024-01-11T05:31:53;77830.03;;;-146.39;30.25
40460;BME280;26164;51.138;16.952;2024-01-11T05:34:18;77809.63;;;-146.39;30.02
40460;BME280;26164;51.138;16.952;2024-01-11T05:36:45;77774.91;;;-146.39;29.92
40460;BME280;26164;51.138;16.952;2024-01-11T05:39:11;77687.09;;;-146.39;29.06
40460;BME280;26164;51.138;16.952;2024-01-11T05:41:45;77593.16;;;-146.39;29.09
40460;BME280;26164;51.138;16.952;2024-01-11T05:44:11;77683.00;;;-146.39;28.95
40460;BME280;26164;51.138;16.952;2024-01-11T05:46:37;77678.94;;;-146.39;28.94
40460;BME280;26164;51.138;16.952;2024-01-11T05:49:03;77658.50;;;-146.39;28.80
40460;BME280;26164;51.138;16.952;2024-01-11T05:51:29;77623.78;;;-146.39;28.77
40460;BME280;26164;51.138;16.952;2024-01-11T05:53:59;77719.78;;;-146.39;28.82
40460;BME280;26164;51.138;16.952;2024-01-11T05:56:26;77779.00;;;-146.39;29.31
40460;BME280;26164;51.138;16.952;2024-01-11T05:58:52;77703.44;;;-146.39;29.50
40460;BME280;26164;51.138;16.952;2024-01-11T06:01:20;77621.75;;;-146.39;29.01
40460;BME280;26164;51.138;16.952;2024-01-11T06:03:47;77799.41;;;-146.39;29.62
40460;BME280;26164;51.138;16.952;2024-01-11T06:06:18;77695.25;;;-146.39;28.93
40460;BME280;26164;51.138;16.952;2024-01-11T06:08:45;77799.41;;;-146.39;29.51
40460;BME280;26164;51.138;16.952;2024-01-11T06:11:15;77634.00;;;-146.39;29.28
40460;BME280;26164;51.138;16.952;2024-01-11T06:13:46;77578.88;;;-146.39;28.80
40460;BME280;26164;51.138;16.952;2024-01-11T06:16:28;77666.69;;;-146.39;29.43
40460;BME280;26164;51.138;16.952;2024-01-11T06:18:59;77593.16;;;-146.39;28.95
40460;BME280;26164;51.138;16.952;2024-01-11T06:21:51;77674.84;;;-146.39;29.85
40460;BME280;26164;51.138;16.952;2024-01-11T06:24:35;77695.25;;;-146.39;29.74
40460;BME280;26164;51.138;16.952;2024-01-11T06:27:30;77642.19;;;-146.39;29.36
40460;BME280;26164;51.138;16.952;2024-01-11T06:30:09;77729.97;;;-146.39;30.36
40460;BME280;26164;51.138;16.952;2024-01-11T06:32:40;77687.09;;;-146.39;30.01
40460;BME280;26164;51.138;16.952;2024-01-11T06:35:32;77556.41;;;-146.39;29.30
40460;BME280;26164;51.138;16.952;2024-01-11T06:38:19;77683.00;;;-146.39;29.73
40460;BME280;26164;51.138;16.952;2024-01-11T06:41:17;77691.19;;;-146.39;29.34
40460;BME280;26164;51.138;16.952;2024-01-11T06:44:07;77752.44;;;-146.39;29.77
40460;BME280;26164;51.138;16.952;2024-01-11T06:46:50;77787.16;;;-146.39;30.36
40460;BME280;26164;51.138;16.952;2024-01-11T06:49:33;77740.19;;;-146.39;29.52
40460;BME280;26164;51.138;16.952;2024-01-11T06:52:19;77666.69;;;-146.39;29.37
40460;BME280;26164;51.138;16.952;2024-01-11T06:55:05;77699.34;;;-146.39;29.52
40460;BME280;26164;51.138;16.952;2024-01-11T07:01:18;77611.53;;;-146.39;29.39
40460;BME280;26164;51.138;16.952;2024-01-11T07:04:01;77576.81;;;-146.39;29.34
40460;BME280;26164;51.138;16.952;2024-01-11T07:06:47;77642.19;;;-146.39;29.40
40460;BME280;26164;51.138;16.952;2024-01-11T07:10:10;77527.81;;;-146.39;29.04
40460;BME280;26164;51.138;16.952;2024-01-11T07:13:11;77480.84;;;-146.39;28.98
40460;BME280;26164;51.138;16.952;2024-01-11T07:16:41;77548.25;;;-146.39;28.43
40460;BME280;26164;51.138;16.952;2024-01-11T07:20:00;77491.06;;;-146.39;28.75
40460;BME280;26164;51.138;16.952;2024-01-11T07:23:18;77585.00;;;-146.39;29.25
40460;BME280;26164;51.138;16.952;2024-01-11T07:26:39;77580.91;;;-146.39;29.17
40460;BME280;26164;51.138;16.952;2024-01-11T07:29:49;77603.38;;;-146.39;29.27
40460;BME280;26164;51.138;16.952;2024-01-11T07:32:36;77413.47;;;-146.39;28.72
40460;BME280;26164;51.138;16.952;2024-01-11T07:35:15;77517.63;;;-146.39;29.45
40460;BME280;26164;51.138;16.952;2024-01-11T07:38:45;77580.91;;;-146.39;29.73
40460;BME280;26164;51.138;16.952;2024-01-11T07:41:43;77603.38;;;-146.39;29.35
40460;BME280;26164;51.138;16.952;2024-01-11T07:44:48;77458.41;;;-146.39;28.60
40460;BME280;26164;51.138;16.952;2024-01-11T07:57:07;77576.81;;;-146.39;29.47
40460;BME280;26164;51.138;16.952;2024-01-11T07:59:51;77493.09;;;-146.39;29.07
40460;BME280;26164;51.138;16.952;2024-01-11T08:09:16;77536.00;;;-146.39;29.42
40460;BME280;26164;51.138;16.952;2024-01-11T08:12:01;77466.56;;;-146.39;29.25
40460;BME280;26164;51.138;16.952;2024-01-11T08:17:46;77413.47;;;-146.39;28.97
40460;BME280;26164;51.138;16.952;2024-01-11T08:20:35;77495.16;;;-146.39;29.67
40460;BME280;26164;51.138;16.952;2024-01-11T08:26:11;77468.59;;;-146.39;29.84
40460;BME280;26164;51.138;16.952;2024-01-11T08:29:34;77331.78;;;-146.39;28.83
40460;BME280;26164;51.138;16.952;2024-01-11T08:33:03;77344.03;;;-146.39;28.72
40460;BME280;26164;51.138;16.952;2024-01-11T08:36:03;77348.13;;;-146.39;29.28
40460;BME280;26164;51.138;16.952;2024-01-11T08:39:22;77276.66;;;-146.39;28.75
40460;BME280;26164;51.138;16.952;2024-01-11T08:42:06;77433.88;;;-146.39;29.51
40460;BME280;26164;51.138;16.952;2024-01-11T08:44:52;77262.38;;;-146.39;28.39
40460;BME280;26164;51.138;16.952;2024-01-11T08:47:35;77339.97;;;-146.39;28.84
40460;BME280;26164;51.138;16.952;2024-01-11T08:50:28;77401.22;;;-146.39;30.00
40460;BME280;26164;51.138;16.952;2024-01-11T08:52:59;77503.31;;;-146.39;29.93
40460;BME280;26164;51.138;16.952;2024-01-11T08:55:28;77442.06;;;-146.39;29.55
40460;BME280;26164;51.138;16.952;2024-01-11T08:58:16;77148.03;;;-146.39;28.23
40460;BME280;26164;51.138;16.952;2024-01-11T09:00:57;77282.78;;;-146.39;28.32
40460;BME280;26164;51.138;16.952;2024-01-11T09:04:06;77301.16;;;-146.39;28.42
40460;BME280;26164;51.138;16.952;2024-01-11T09:06:51;77293.00;;;-146.39;28.50
40460;BME280;26164;51.138;16.952;2024-01-11T09:12:24;77470.66;;;-146.39;28.99
40460;BME280;26164;51.138;16.952;2024-01-11T09:15:12;77268.50;;;-146.39;27.75
40460;BME280;26164;51.138;16.952;2024-01-11T09:17:57;77135.78;;;-146.39;27.38
40460;BME280;26164;51.138;16.952;2024-01-11T09:20:55;77241.94;;;-146.39;27.66
40460;BME280;26164;51.138;16.952;2024-01-11T09:23:57;77168.44;;;-146.39;27.34
40460;BME280;26164;51.138;16.952;2024-01-11T09:26:42;77184.78;;;-146.39;27.06
40460;BME280;26164;51.138;16.952;2024-01-11T09:29:29;77176.63;;;-146.39;27.12
40460;BME280;26164;51.138;16.952;2024-01-11T09:32:11;77168.44;;;-146.39;26.86
40460;BME280;26164;51.138;16.952;2024-01-11T09:35:04;77152.13;;;-146.39;26.62
40460;BME280;26164;51.138;16.952;2024-01-11T09:41:12;77209.28;;;-146.39;27.01
40460;BME280;26164;51.138;16.952;2024-01-11T09:43:55;77225.63;;;-146.39;27.10
40460;BME280;26164;51.138;16.952;2024-01-11T09:46:41;77278.72;;;-146.39;27.26
40460;BME280;26164;51.138;16.952;2024-01-11T09:49:30;77180.69;;;-146.39;26.86
40460;BME280;26164;51.138;16.952;2024-01-11T09:52:19;77160.28;;;-146.39;26.75
40460;BME280;26164;51.138;16.952;2024-01-11T09:55:02;77201.13;;;-146.39;26.92
40460;BME280;26164;51.138;16.952;2024-01-11T09:57:52;76980.59;;;-146.39;25.92
40460;BME280;26164;51.138;16.952;2024-01-11T10:00:37;77156.19;;;-146.39;26.00
40460;BME280;26164;51.138;16.952;2024-01-11T10:03:21;77017.34;;;-146.39;25.96
40460;BME280;26164;51.138;16.952;2024-01-11T10:06:32;76923.44;;;-146.39;25.62
40460;BME280;26164;51.138;16.952;2024-01-11T10:09:33;77235.81;;;-146.39;26.63
40460;BME280;26164;51.138;16.952;2024-01-11T10:12:17;77017.34;;;-146.39;25.91
40460;BME280;26164;51.138;16.952;2024-01-11T10:15:10;77054.09;;;-146.39;25.86
40460;BME280;26164;51.138;16.952;2024-01-11T10:17:54;77047.97;;;-146.39;25.84
40460;BME280;26164;51.138;16.952;2024-01-11T10:20:40;77033.69;;;-146.39;25.94
40460;BME280;26164;51.138;16.952;2024-01-11T10:23:22;76996.94;;;-146.39;25.76
40460;BME280;26164;51.138;16.952;2024-01-11T10:26:15;77066.34;;;-146.39;26.11
40460;BME280;26164;51.138;16.952;2024-01-11T10:29:03;76980.59;;;-146.39;26.09
40460;BME280;26164;51.138;16.952;2024-01-11T10:31:47;77182.75;;;-146.39;26.98
40460;BME280;26164;51.138;16.952;2024-01-11T10:34:30;77099.03;;;-146.39;26.42
40460;BME280;26164;51.138;16.952;2024-01-11T10:37:15;77152.13;;;-146.39;26.52
40460;BME280;26164;51.138;16.952;2024-01-11T10:40:08;77045.94;;;-146.39;26.33
40460;BME280;26164;51.138;16.952;2024-01-11T10:43:02;77152.13;;;-146.39;27.23
40460;BME280;26164;51.138;16.952;2024-01-11T10:45:45;77197.03;;;-146.39;27.23
40460;BME280;26164;51.138;16.952;2024-01-11T10:49:00;77278.72;;;-146.39;27.13
40460;BME280;26164;51.138;16.952;2024-01-11T10:51:45;77029.59;;;-146.39;26.55
40460;BME280;26164;51.138;16.952;2024-01-11T10:55:34;77090.84;;;-146.39;26.31
40460;BME280;26164;51.138;16.952;2024-01-11T10:58:35;77096.97;;;-146.39;26.58
40460;BME280;26164;51.138;16.952;2024-01-11T11:01:30;77143.94;;;-146.39;26.44
40460;BME280;26164;51.138;16.952;2024-01-11T11:07:14;77207.25;;;-146.39;27.03
40460;BME280;26164;51.138;16.952;2024-01-11T11:09:58;77119.44;;;-146.39;27.01
40460;BME280;26164;51.138;16.952;2024-01-11T11:16:19;77099.03;;;-146.39;26.23
40460;BME280;26164;51.138;16.952;2024-01-11T16:35:04;77307.28;;;-146.39;36.91
40460;BME280;26164;51.138;16.952;2024-01-11T19:10:31;77270.53;;;-146.39;36.24
40460;BME280;26164;51.138;16.952;2024-01-11T19:12:59;77127.59;;;-146.39;34.64
40460;BME280;26164;51.138;16.952;2024-01-11T19:15:31;77211.31;;;-146.39;36.08
40460;BME280;26164;51.138;16.952;2024-01-11T19:18:03;77299.13;;;-146.39;36.33
40460;BME280;26164;51.138;16.952;2024-01-11T19:20:33;77201.13;;;-146.39;36.13
40460;BME280;26164;51.138;16.952;2024-01-11T19:23:14;77213.38;;;-146.39;35.45
40460;BME280;26164;51.138;16.952;2024-01-11T19:25:45;77252.16;;;-146.39;36.18
40460;BME280;26164;51.138;16.952;2024-01-11T19:28:10;77258.28;;;-146.39;36.21
40460;BME280;26164;51.138;16.952;2024-01-11T19:30:39;77139.84;;;-146.39;35.25
40460;BME280;26164;51.138;16.952;2024-01-11T19:33:07;77148.03;;;-146.39;34.93
40460;BME280;26164;51.138;16.952;2024-01-11T19:35:45;77254.19;;;-146.39;35.98
40460;BME280;26164;51.138;16.952;2024-01-11T19:38:12;77205.19;;;-146.39;35.76
40460;BME280;26164;51.138;16.952;2024-01-11T19:40:55;77205.19;;;-146.39;35.09
40460;BME280;26164;51.138;16.952;2024-01-11T19:43:27;77250.13;;;-146.39;35.74
40460;BME280;26164;51.138;16.952;2024-01-11T19:45:53;77213.38;;;-146.39;36.11
40460;BME280;26164;51.138;16.952;2024-01-11T19:48:34;77290.97;;;-146.39;36.30
40460;BME280;26164;51.138;16.952;2024-01-11T19:51:01;77278.72;;;-146.39;36.54
40460;BME280;26164;51.138;16.952;2024-01-11T19:53:28;77268.50;;;-146.39;36.38
40460;BME280;26164;51.138;16.952;2024-01-11T19:55:57;77274.63;;;-146.39;36.25
40460;BME280;26164;51.138;16.952;2024-01-11T19:58:24;77246.03;;;-146.39;36.36
40460;BME280;26164;51.138;16.952;2024-01-11T20:01:05;77413.47;;;-146.39;37.70
40460;BME280;26164;51.138;16.952;2024-01-11T20:03:46;77150.06;;;-146.39;35.30
40460;BME280;26164;51.138;16.952;2024-01-11T20:06:27;77137.81;;;-146.39;34.93
40460;BME280;26164;51.138;16.952;2024-01-11T20:09:11;77045.94;;;-146.39;34.64
40460;BME280;26164;51.138;16.952;2024-01-11T20:12:00;77264.41;;;-146.39;36.03
40460;BME280;26164;51.138;16.952;2024-01-11T20:14:28;77111.28;;;-146.39;35.26
40460;BME280;26164;51.138;16.952;2024-01-11T20:17:02;77221.53;;;-146.39;36.05
40460;BME280;26164;51.138;16.952;2024-01-11T20:19:35;77152.13;;;-146.39;35.04
40460;BME280;26164;51.138;16.952;2024-01-11T20:22:02;77197.03;;;-146.39;35.43
40460;BME280;26164;51.138;16.952;2024-01-11T20:24:29;77139.84;;;-146.39;34.68
40460;BME280;26164;51.138;16.952;2024-01-11T20:26:58;77135.78;;;-146.39;34.96
40460;BME280;26164;51.138;16.952;2024-01-11T20:29:37;77033.69;;;-146.39;34.15
40460;BME280;26164;51.138;16.952;2024-01-11T20:32:12;77143.94;;;-146.39;35.17
40460;BME280;26164;51.138;16.952;2024-01-11T20:34:42;77254.19;;;-146.39;36.07
40460;BME280;26164;51.138;16.952;2024-01-11T20:37:08;77052.06;;;-146.39;34.45
40460;BME280;26164;51.138;16.952;2024-01-11T20:39:34;77162.31;;;-146.39;35.10
40460;BME280;26164;51.138;16.952;2024-01-11T20:42:01;77139.84;;;-146.39;35.42
40460;BME280;26164;51.138;16.952;2024-01-11T20:44:45;77139.84;;;-146.39;35.19
40460;BME280;26164;51.138;16.952;2024-01-11T20:47:14;77290.97;;;-146.39;36.11
40460;BME280;26164;51.138;16.952;2024-01-11T20:49:42;77068.41;;;-146.39;34.18
40460;BME280;26164;51.138;16.952;2024-01-11T20:52:43;77099.03;;;-146.39;34.52
40460;BME280;26164;51.138;16.952;2024-01-11T20:55:40;77290.97;;;-146.39;36.01
40460;BME280;26164;51.138;16.952;2024-01-11T20:58:12;77131.69;;;-146.39;35.19
40460;BME280;26164;51.138;16.952;2024-01-11T21:01:14;77029.59;;;-146.39;34.22
40460;BME280;26164;51.138;16.952;2024-01-11T21:04:06;77070.44;;;-146.39;34.54
40460;BME280;26164;51.138;16.952;2024-01-11T21:06:34;77025.53;;;-146.39;34.26
40460;BME280;26164;51.138;16.952;2024-01-11T21:09:04;77111.28;;;-146.39;34.87
40460;BME280;26164;51.138;16.952;2024-01-11T21:11:50;77203.16;;;-146.39;35.66
40460;BME280;26164;51.138;16.952;2024-01-11T21:14:22;77101.06;;;-146.39;34.74
40460;BME280;26164;51.138;16.952;2024-01-11T21:16:50;77184.78;;;-146.39;35.88
40460;BME280;26164;51.138;16.952;2024-01-11T21:19:19;77152.13;;;-146.39;35.35
40460;BME280;26164;51.138;16.952;2024-01-11T21:21:45;77201.13;;;-146.39;35.70
40460;BME280;26164;51.138;16.952;2024-01-11T21:24:15;77205.19;;;-146.39;35.92
40460;BME280;26164;51.138;16.952;2024-01-11T21:26:49;77233.78;;;-146.39;36.03
40460;BME280;26164;51.138;16.952;2024-01-11T21:29:17;77197.03;;;-146.39;36.00
40460;BME280;26164;51.138;16.952;2024-01-11T21:31:51;77221.53;;;-146.39;35.80
40460;BME280;26164;51.138;16.952;2024-01-11T21:34:24;77276.66;;;-146.39;37.10
40460;BME280;26164;51.138;16.952;2024-01-11T21:36:51;77246.03;;;-146.39;36.04
40460;BME280;26164;51.138;16.952;2024-01-11T21:39:21;77217.44;;;-146.39;35.79
40460;BME280;26164;51.138;16.952;2024-01-11T21:41:48;77156.19;;;-146.39;35.04
40460;BME280;26164;51.138;16.952;2024-01-11T21:44:33;77252.16;;;-146.39;36.33
40460;BME280;26164;51.138;16.952;2024-01-11T21:47:17;77239.91;;;-146.39;35.78
40460;BME280;26164;51.138;16.952;2024-01-11T21:49:48;77266.44;;;-146.39;36.23
40460;BME280;26164;51.138;16.952;2024-01-11T21:52:18;77329.75;;;-146.39;36.40